createdAt,value
2022-07-25T00:00:17.176Z,22.22
2022-07-25T00:02:46.130Z,22.00
2022-07-25T00:05:14.051Z,22.23
2022-07-25T00:07:41.979Z,22.11
2022-07-25T00:10:10.966Z,21.96
2022-07-25T00:12:39.317Z,21.57
2022-07-25T00:15:08.371Z,21.65
2022-07-25T00:17:37.914Z,21.81
2022-07-25T00:20:07.771Z,21.47
2022-07-25T00:22:35.705Z,21.50
2022-07-25T00:25:03.697Z,21.74
2022-07-25T00:27:31.719Z,21.47
2022-07-25T00:29:59.691Z,21.56
2022-07-25T00:32:27.611Z,21.57
2022-07-25T00:34:56.941Z,21.35
2022-07-25T00:37:24.890Z,21.07
2022-07-25T00:39:52.863Z,21.55
2022-07-25T00:42:21.775Z,21.08
2022-07-25T00:44:49.728Z,21.10
2022-07-25T00:47:17.702Z,21.01
2022-07-25T00:49:45.626Z,20.63
2022-07-25T00:52:15.332Z,20.89
2022-07-25T00:54:43.420Z,21.05
2022-07-25T00:57:12.972Z,21.00
2022-07-25T00:59:40.973Z,20.72
2022-07-25T01:02:09.041Z,20.98
2022-07-25T01:04:37.002Z,20.91
2022-07-25T01:07:04.951Z,20.99
2022-07-25T01:09:34.309Z,20.69
2022-07-25T01:12:02.267Z,20.77
2022-07-25T01:14:30.199Z,20.70
2022-07-25T01:16:58.174Z,20.63
2022-07-25T01:19:26.102Z,20.71
2022-07-25T01:21:56.372Z,20.71
2022-07-25T01:24:24.296Z,20.72
2022-07-25T01:26:52.285Z,20.76
2022-07-25T01:29:20.259Z,20.48
2022-07-25T01:31:48.207Z,20.60
2022-07-25T01:34:16.170Z,20.57
2022-07-25T01:36:44.147Z,20.58
2022-07-25T01:39:13.451Z,20.21
2022-07-25T01:41:41.420Z,20.24
2022-07-25T01:44:09.753Z,20.22
2022-07-25T01:46:37.991Z,20.14
2022-07-25T01:49:06.366Z,20.37
2022-07-25T01:51:34.358Z,20.70
2022-07-25T01:54:02.326Z,20.80
2022-07-25T01:56:32.743Z,20.91
2022-07-25T01:59:01.343Z,21.02
2022-07-25T02:01:29.316Z,20.89
2022-07-25T02:03:57.299Z,20.97
2022-07-25T02:06:25.258Z,20.85
2022-07-25T02:08:53.195Z,20.70
2022-07-25T02:11:21.249Z,20.53
2022-07-25T02:13:50.551Z,20.43
2022-07-25T02:16:18.631Z,19.99
2022-07-25T02:18:47.788Z,20.03
2022-07-25T02:21:16.486Z,20.08
2022-07-25T02:23:44.690Z,19.75
2022-07-25T02:26:13.326Z,19.55
2022-07-25T02:28:41.955Z,19.82
2022-07-25T02:31:11.569Z,20.05
2022-07-25T02:33:39.617Z,20.16
2022-07-25T02:36:08.341Z,20.17
2022-07-25T02:38:36.308Z,19.77
2022-07-25T02:41:04.896Z,19.67
2022-07-25T02:43:32.847Z,19.79
2022-07-25T02:46:00.863Z,19.90
2022-07-25T02:48:30.334Z,19.90
2022-07-25T02:50:58.345Z,19.59
2022-07-25T02:53:54.427Z,19.74
2022-07-25T02:56:14.272Z,19.73
2022-07-25T02:58:42.896Z,19.79
2022-07-25T03:01:11.142Z,19.79
2022-07-25T03:03:40.624Z,19.92
2022-07-25T03:06:08.830Z,20.05
2022-07-25T03:08:36.769Z,20.04
2022-07-25T03:11:04.801Z,19.88
2022-07-25T03:13:33.350Z,20.02
2022-07-25T03:16:01.493Z,20.13
2022-07-25T03:18:29.607Z,20.31
2022-07-25T03:20:58.985Z,20.37
2022-07-25T03:23:27.441Z,20.42
2022-07-25T03:25:55.508Z,20.47
2022-07-25T03:28:24.739Z,20.56
2022-07-25T03:30:53.059Z,20.57
2022-07-25T03:33:21.160Z,20.57
2022-07-25T03:35:49.150Z,20.62
2022-07-25T03:38:18.731Z,20.62
2022-07-25T03:40:46.687Z,20.62
2022-07-25T03:43:14.682Z,20.62
2022-07-25T03:45:42.839Z,20.65
2022-07-25T03:48:10.806Z,20.71
2022-07-25T03:50:38.707Z,20.72
2022-07-25T03:53:06.818Z,20.73
2022-07-25T03:55:40.501Z,20.70
2022-07-25T03:58:08.582Z,20.74
2022-07-25T04:00:36.571Z,20.74
2022-07-25T04:03:05.083Z,20.77
2022-07-25T04:05:33.078Z,20.79
2022-07-25T04:08:01.054Z,20.78
2022-07-25T04:10:29.030Z,20.84
2022-07-25T04:12:58.346Z,20.83
2022-07-25T04:15:26.474Z,20.83
2022-07-25T04:17:54.427Z,20.87
2022-07-25T04:20:23.443Z,20.87
2022-07-25T04:22:53.088Z,20.91
2022-07-25T04:25:21.084Z,21.03
2022-07-25T04:27:49.075Z,21.01
2022-07-25T04:30:24.573Z,21.05
2022-07-25T04:32:52.950Z,21.05
2022-07-25T04:35:21.077Z,21.10
2022-07-25T04:37:49.010Z,21.09
2022-07-25T04:40:17.009Z,21.17
2022-07-25T04:42:44.931Z,21.23
2022-07-25T04:45:17.900Z,21.25
2022-07-25T04:47:47.405Z,21.29
2022-07-25T04:50:15.489Z,21.28
2022-07-25T04:52:43.525Z,21.28
2022-07-25T04:55:11.526Z,21.26
2022-07-25T04:57:39.508Z,21.28
2022-07-25T05:00:09.001Z,21.38
2022-07-25T05:02:37.589Z,21.49
2022-07-25T05:05:08.563Z,21.61
2022-07-25T05:07:49.240Z,21.63
2022-07-25T05:10:17.201Z,21.75
2022-07-25T05:12:45.113Z,21.86
2022-07-25T05:15:13.727Z,22.01
2022-07-25T05:17:41.663Z,22.09
2022-07-25T05:20:12.476Z,22.28
2022-07-25T05:22:40.598Z,22.31
2022-07-25T05:25:10.025Z,22.37
2022-07-25T05:27:38.358Z,22.42
2022-07-25T05:30:07.886Z,22.47
2022-07-25T05:32:35.820Z,22.49
2022-07-25T05:35:03.914Z,22.53
2022-07-25T05:37:33.213Z,22.55
2022-07-25T05:40:01.178Z,22.68
2022-07-25T05:42:29.108Z,22.68
2022-07-25T05:44:57.070Z,22.73
2022-07-25T05:47:25.234Z,22.76
2022-07-25T05:49:53.213Z,22.74
2022-07-25T05:52:21.166Z,22.92
2022-07-25T05:54:50.543Z,23.01
2022-07-25T05:57:18.683Z,23.16
2022-07-25T05:59:46.623Z,23.24
2022-07-25T06:02:14.693Z,23.26
2022-07-25T06:04:42.759Z,23.37
2022-07-25T06:07:10.852Z,23.46
2022-07-25T06:09:42.550Z,23.57
2022-07-25T06:12:11.875Z,23.57
2022-07-25T06:14:39.867Z,23.59
2022-07-25T06:17:07.826Z,23.68
2022-07-25T06:19:35.823Z,23.82
2022-07-25T06:22:03.729Z,23.97
2022-07-25T06:24:31.938Z,24.08
2022-07-25T06:26:59.939Z,24.20
2022-07-25T06:29:29.242Z,24.32
2022-07-25T06:31:57.247Z,24.42
2022-07-25T06:34:28.693Z,24.44
2022-07-25T06:36:57.576Z,24.47
2022-07-25T06:39:25.725Z,24.44
2022-07-25T06:41:53.647Z,24.38
2022-07-25T06:44:21.647Z,24.36
2022-07-25T06:46:51.000Z,24.39
2022-07-25T06:49:19.032Z,24.39
2022-07-25T06:51:47.011Z,24.41
2022-07-25T06:54:15.686Z,24.47
2022-07-25T06:56:43.631Z,24.65
2022-07-25T06:59:11.603Z,24.92
2022-07-25T07:01:39.763Z,25.14
2022-07-25T07:04:09.540Z,25.28
2022-07-25T07:06:38.750Z,25.41
2022-07-25T07:09:07.001Z,25.55
2022-07-25T07:11:35.155Z,25.62
2022-07-25T07:14:03.742Z,25.69
2022-07-25T07:16:32.517Z,25.86
2022-07-25T07:19:00.579Z,25.95
2022-07-25T07:21:29.962Z,26.12
2022-07-25T07:23:57.907Z,26.10
2022-07-25T07:26:25.877Z,26.19
2022-07-25T07:28:56.007Z,26.21
2022-07-25T07:31:24.048Z,26.25
2022-07-25T07:33:52.052Z,26.40
2022-07-25T07:36:20.014Z,26.32
2022-07-25T07:38:49.507Z,26.45
2022-07-25T07:41:17.476Z,26.53
2022-07-25T07:43:45.432Z,26.51
2022-07-25T07:46:13.422Z,26.52
2022-07-25T07:48:41.444Z,26.80
2022-07-25T07:51:09.422Z,26.86
2022-07-25T07:53:54.828Z,27.06
2022-07-25T07:56:24.279Z,27.27
2022-07-25T07:58:52.237Z,27.37
2022-07-25T08:01:20.193Z,27.63
2022-07-25T08:03:48.272Z,27.86
2022-07-25T08:06:16.550Z,27.92
2022-07-25T08:08:44.475Z,27.55
2022-07-25T08:11:12.412Z,27.78
2022-07-25T08:13:41.732Z,28.24
2022-07-25T08:16:11.967Z,28.10
2022-07-25T08:18:40.003Z,28.19
2022-07-25T08:21:08.224Z,28.16
2022-07-25T08:23:38.940Z,28.43
2022-07-25T08:26:07.706Z,28.40
2022-07-25T08:28:35.692Z,28.45
2022-07-25T08:31:05.182Z,28.51
2022-07-25T08:33:33.240Z,28.40
2022-07-25T08:36:01.647Z,28.54
2022-07-25T08:38:30.288Z,28.28
2022-07-25T08:40:59.872Z,28.38
2022-07-25T08:43:29.327Z,28.48
2022-07-25T08:45:57.281Z,28.24
2022-07-25T08:48:27.796Z,28.60
2022-07-25T08:50:57.149Z,28.77
2022-07-25T08:53:34.580Z,28.35
2022-07-25T08:56:08.136Z,28.72
2022-07-25T08:58:38.753Z,28.86
2022-07-25T09:01:07.149Z,29.12
2022-07-25T09:03:36.708Z,29.56
2022-07-25T09:06:15.547Z,29.95
2022-07-25T09:08:52.803Z,29.85
2022-07-25T09:11:31.293Z,29.48
2022-07-25T09:14:00.789Z,29.96
2022-07-25T09:16:32.626Z,30.15
2022-07-25T09:19:12.744Z,30.26
2022-07-25T09:21:41.922Z,30.43
2022-07-25T09:24:11.647Z,30.54
2022-07-25T09:26:48.036Z,30.62
2022-07-25T09:29:20.802Z,30.17
2022-07-25T09:31:48.926Z,30.29
2022-07-25T09:34:34.743Z,30.31
2022-07-25T09:37:03.520Z,30.51
2022-07-25T09:39:36.213Z,30.63
2022-07-25T09:42:04.790Z,30.05
2022-07-25T09:44:32.736Z,30.28
2022-07-25T09:47:11.974Z,30.82
2022-07-25T09:49:43.855Z,31.12
2022-07-25T09:52:12.752Z,30.83
2022-07-25T09:54:41.246Z,30.81
2022-07-25T09:57:09.201Z,30.48
2022-07-25T09:59:38.157Z,30.68
2022-07-25T10:02:10.136Z,30.74
2022-07-25T10:04:51.159Z,30.92
2022-07-25T10:07:22.087Z,31.24
2022-07-25T10:09:52.174Z,30.89
2022-07-25T10:12:21.462Z,30.73
2022-07-25T10:15:05.429Z,30.68
2022-07-25T10:17:33.433Z,30.62
2022-07-25T10:20:04.094Z,30.73
2022-07-25T10:22:55.770Z,30.81
2022-07-25T10:25:24.529Z,30.76
2022-07-25T10:28:00.145Z,30.22
2022-07-25T10:30:29.948Z,30.88
2022-07-25T10:32:59.402Z,30.81
2022-07-25T10:35:29.271Z,30.98
2022-07-25T10:37:59.066Z,31.12
2022-07-25T10:40:29.838Z,31.54
2022-07-25T10:43:02.075Z,31.93
2022-07-25T10:45:39.518Z,30.73
2022-07-25T10:48:12.339Z,30.80
2022-07-25T10:50:56.327Z,30.90
2022-07-25T10:53:35.467Z,30.66
2022-07-25T10:56:10.827Z,31.00
2022-07-25T10:58:47.076Z,31.29
2022-07-25T11:01:15.623Z,31.89
2022-07-25T11:03:45.738Z,31.83
2022-07-25T11:06:16.093Z,32.28
2022-07-25T11:08:44.512Z,32.01
2022-07-25T11:11:13.225Z,32.04
2022-07-25T11:13:42.003Z,31.73
2022-07-25T11:16:10.910Z,31.66
2022-07-25T11:18:40.311Z,32.09
2022-07-25T11:21:09.930Z,32.47
2022-07-25T11:23:41.773Z,32.23
2022-07-25T11:26:11.130Z,31.98
2022-07-25T11:28:44.190Z,32.72
2022-07-25T11:31:13.274Z,32.29
2022-07-25T11:33:42.711Z,32.59
2022-07-25T11:36:11.910Z,32.68
2022-07-25T11:38:43.101Z,33.07
2022-07-25T11:41:12.329Z,32.72
2022-07-25T11:43:49.595Z,32.63
2022-07-25T11:46:18.441Z,33.11
2022-07-25T11:48:47.750Z,33.07
2022-07-25T11:51:19.002Z,33.11
2022-07-25T11:53:51.135Z,32.38
2022-07-25T11:56:43.626Z,32.36
2022-07-25T11:59:10.172Z,32.69
2022-07-25T12:01:40.352Z,32.51
2022-07-25T12:04:12.734Z,32.72
2022-07-25T12:06:41.013Z,32.50
2022-07-25T12:09:19.272Z,33.22
2022-07-25T12:11:48.273Z,33.98
2022-07-25T12:14:16.667Z,33.78
2022-07-25T12:16:44.894Z,34.00
2022-07-25T12:19:20.535Z,34.14
2022-07-25T12:21:48.656Z,33.06
2022-07-25T12:24:17.993Z,32.88
2022-07-25T12:26:45.995Z,32.61
2022-07-25T12:29:13.933Z,32.46
2022-07-25T12:31:41.882Z,32.48
2022-07-25T12:34:09.870Z,32.49
2022-07-25T12:36:43.899Z,32.94
2022-07-25T12:39:12.523Z,32.02
2022-07-25T12:41:42.769Z,31.92
2022-07-25T12:44:11.280Z,31.84
2022-07-25T12:46:45.819Z,31.94
2022-07-25T12:49:15.493Z,32.47
2022-07-25T12:51:43.583Z,32.34
2022-07-25T12:54:11.527Z,32.55
2022-07-25T12:56:41.011Z,32.39
2022-07-25T12:59:09.396Z,32.15
2022-07-25T13:01:37.576Z,32.09
2022-07-25T13:04:09.271Z,32.37
2022-07-25T13:06:38.877Z,31.33
2022-07-25T13:09:07.909Z,31.30
2022-07-25T13:11:36.279Z,31.29
2022-07-25T13:14:06.347Z,31.63
2022-07-25T13:16:37.736Z,31.77
2022-07-25T13:19:06.163Z,32.08
2022-07-25T13:21:34.382Z,31.84
2022-07-25T13:24:02.366Z,32.11
2022-07-25T13:26:30.379Z,32.58
2022-07-25T13:29:00.050Z,32.19
2022-07-25T13:31:29.642Z,32.28
2022-07-25T13:33:57.839Z,32.08
2022-07-25T13:36:25.844Z,31.82
2022-07-25T13:38:53.780Z,31.84
2022-07-25T13:41:21.735Z,31.41
2022-07-25T13:43:49.694Z,32.20
2022-07-25T13:46:17.879Z,32.41
2022-07-25T13:48:47.387Z,31.95
2022-07-25T13:51:15.720Z,31.84
2022-07-25T13:53:44.946Z,32.08
2022-07-25T13:56:13.416Z,31.65
2022-07-25T13:58:41.793Z,31.44
2022-07-25T14:01:11.700Z,31.61
2022-07-25T14:03:39.731Z,32.13
2022-07-25T14:06:11.192Z,31.44
2022-07-25T14:08:40.578Z,30.30
2022-07-25T14:11:08.627Z,30.28
2022-07-25T14:13:36.831Z,29.15
2022-07-25T14:16:05.259Z,29.19
2022-07-25T14:18:33.211Z,29.78
2022-07-25T14:21:01.214Z,28.84
2022-07-25T14:23:30.583Z,28.49
2022-07-25T14:26:00.167Z,28.72
2022-07-25T14:28:28.225Z,27.64
2022-07-25T14:30:56.611Z,28.46
2022-07-25T14:33:24.730Z,27.80
2022-07-25T14:35:52.788Z,27.66
2022-07-25T14:38:20.862Z,27.59
2022-07-25T14:40:51.132Z,28.02
2022-07-25T14:43:19.071Z,27.66
2022-07-25T14:45:47.031Z,28.13
2022-07-25T14:48:15.434Z,27.79
2022-07-25T14:50:43.418Z,27.83
2022-07-25T14:53:12.793Z,27.67
2022-07-25T14:55:40.716Z,27.59
2022-07-25T14:58:10.100Z,26.35
2022-07-25T15:00:41.758Z,26.36
2022-07-25T15:03:09.781Z,26.77
2022-07-25T15:05:38.494Z,26.93
2022-07-25T15:08:07.316Z,25.05
2022-07-25T15:10:35.368Z,25.29
2022-07-25T15:13:29.510Z,25.30
2022-07-25T15:15:52.722Z,25.70
2022-07-25T15:18:20.807Z,25.83
2022-07-25T15:20:48.786Z,25.05
2022-07-25T15:23:16.704Z,23.67
2022-07-25T15:26:01.096Z,24.55
2022-07-25T15:28:30.150Z,24.91
2022-07-25T15:30:59.545Z,24.65
2022-07-25T15:33:27.604Z,24.85
2022-07-25T15:35:55.623Z,25.54
2022-07-25T15:38:24.017Z,22.74
2022-07-25T15:40:51.994Z,23.95
2022-07-25T15:43:19.930Z,24.23
2022-07-25T15:45:48.249Z,24.27
2022-07-25T15:48:18.295Z,25.38
2022-07-25T15:50:49.294Z,26.02
2022-07-25T15:53:17.343Z,25.84
2022-07-25T15:55:45.339Z,26.28
2022-07-25T15:58:13.331Z,25.89
2022-07-25T16:00:41.364Z,25.12
2022-07-25T16:03:10.009Z,24.85
2022-07-25T16:05:40.075Z,24.09
2022-07-25T16:08:09.950Z,23.78
2022-07-25T16:10:38.614Z,23.28
2022-07-25T16:13:07.162Z,23.92
2022-07-25T16:15:35.100Z,23.89
2022-07-25T16:18:03.371Z,25.26
2022-07-25T16:20:32.292Z,25.11
2022-07-25T16:23:02.464Z,25.82
2022-07-25T16:25:31.224Z,26.02
2022-07-25T16:27:59.881Z,25.82
2022-07-25T16:30:28.375Z,25.95
2022-07-25T16:32:56.549Z,25.37
2022-07-25T16:35:24.864Z,25.22
2022-07-25T16:37:52.954Z,24.31
2022-07-25T16:40:28.715Z,24.79
2022-07-25T16:42:59.748Z,24.99
2022-07-25T16:45:28.326Z,25.62
2022-07-25T16:47:56.313Z,25.98
2022-07-25T16:50:24.270Z,25.88
2022-07-25T16:52:53.692Z,25.81
2022-07-25T16:55:23.129Z,25.50
2022-07-25T16:57:51.435Z,25.02
2022-07-25T17:00:20.214Z,25.00
2022-07-25T17:02:48.175Z,25.24
2022-07-25T17:05:16.356Z,23.11
2022-07-25T17:07:44.417Z,23.89
2022-07-25T17:10:12.425Z,23.29
2022-07-25T17:12:41.741Z,24.45
2022-07-25T17:15:10.858Z,24.29
2022-07-25T17:17:38.816Z,23.74
2022-07-25T17:20:07.892Z,23.91
2022-07-25T17:22:35.935Z,24.08
2022-07-25T17:25:03.991Z,22.93
2022-07-25T17:27:32.109Z,22.79
2022-07-25T17:30:01.491Z,22.68
2022-07-25T17:32:30.158Z,22.35
2022-07-25T17:34:58.577Z,23.14
2022-07-25T17:37:27.759Z,23.66
2022-07-25T17:39:55.950Z,22.80
2022-07-25T17:42:24.042Z,21.86
2022-07-25T17:44:52.359Z,22.85
2022-07-25T17:47:21.868Z,22.83
2022-07-25T17:49:51.085Z,21.57
2022-07-25T17:52:19.198Z,23.02
2022-07-25T17:54:47.119Z,23.33
2022-07-25T17:57:15.081Z,22.28
2022-07-25T17:59:43.037Z,22.52
2022-07-25T18:02:11.321Z,23.47
2022-07-25T18:04:40.718Z,22.68
2022-07-25T18:07:08.864Z,23.24
2022-07-25T18:09:36.980Z,22.91
2022-07-25T18:12:05.154Z,23.44
2022-07-25T18:14:33.948Z,22.53
2022-07-25T18:17:01.933Z,22.60
2022-07-25T18:19:30.003Z,22.48
2022-07-25T18:21:59.546Z,23.23
2022-07-25T18:24:29.483Z,23.50
2022-07-25T18:26:58.009Z,23.57
2022-07-25T18:29:26.087Z,23.62
2022-07-25T18:31:54.074Z,23.11
2022-07-25T18:34:22.027Z,23.00
2022-07-25T18:36:50.109Z,23.23
2022-07-25T18:39:19.447Z,23.10
2022-07-25T18:41:47.371Z,22.68
2022-07-25T18:44:15.448Z,22.29
2022-07-25T18:46:45.675Z,22.34
2022-07-25T18:49:13.930Z,22.38
2022-07-25T18:51:42.026Z,22.09
2022-07-25T18:54:10.333Z,21.72
2022-07-25T18:56:40.032Z,21.64
2022-07-25T18:59:08.364Z,22.30
2022-07-25T19:01:37.393Z,22.68
2022-07-25T19:04:06.208Z,22.42
2022-07-25T19:06:34.447Z,22.23
2022-07-25T19:09:02.430Z,22.17
2022-07-25T19:11:30.418Z,22.45
2022-07-25T19:13:59.883Z,22.46
2022-07-25T19:16:27.923Z,22.12
2022-07-25T19:18:56.020Z,21.94
2022-07-25T19:21:24.058Z,22.29
2022-07-25T19:23:52.190Z,22.27
2022-07-25T19:26:21.065Z,23.04
2022-07-25T19:28:49.529Z,22.46
2022-07-25T19:31:19.045Z,21.67
2022-07-25T19:33:47.074Z,21.20
2022-07-25T19:36:15.138Z,21.58
2022-07-25T19:38:43.190Z,21.53
2022-07-25T19:41:11.354Z,21.90
2022-07-25T19:43:39.349Z,22.07
2022-07-25T19:46:07.652Z,21.75
2022-07-25T19:48:37.082Z,21.59
2022-07-25T19:51:05.486Z,21.80
2022-07-25T19:53:33.670Z,22.15
2022-07-25T19:56:02.191Z,21.92
2022-07-25T19:58:31.482Z,21.62
2022-07-25T20:01:01.109Z,21.52
2022-07-25T20:03:29.114Z,21.05
2022-07-25T20:05:58.444Z,20.96
2022-07-25T20:08:26.407Z,21.20
2022-07-25T20:10:54.354Z,21.35
2022-07-25T20:13:22.367Z,21.31
2022-07-25T20:15:50.305Z,21.44
2022-07-25T20:18:19.763Z,21.14
2022-07-25T20:20:48.043Z,20.52
2022-07-25T20:23:17.441Z,21.09
2022-07-25T20:25:45.451Z,21.70
2022-07-25T20:28:13.410Z,21.94
2022-07-25T20:30:41.468Z,21.78
2022-07-25T20:33:10.002Z,21.35
2022-07-25T20:35:38.810Z,21.39
2022-07-25T20:38:09.480Z,21.47
2022-07-25T20:40:46.370Z,21.18
2022-07-25T20:43:16.440Z,21.27
2022-07-25T20:45:44.487Z,20.68
2022-07-25T20:48:13.067Z,20.42
2022-07-25T20:50:41.281Z,20.27
2022-07-25T20:53:10.118Z,20.19
2022-07-25T20:55:39.681Z,20.26
2022-07-25T20:58:07.942Z,20.09
2022-07-25T21:00:36.164Z,20.38
2022-07-25T21:03:04.086Z,20.07
2022-07-25T21:05:37.775Z,19.94
2022-07-25T21:08:06.227Z,19.79
2022-07-25T21:10:34.234Z,19.73
2022-07-25T21:13:03.863Z,19.94
2022-07-25T21:15:32.098Z,20.01
2022-07-25T21:18:00.765Z,19.76
2022-07-25T21:20:28.895Z,19.85
2022-07-25T21:22:56.844Z,19.49
2022-07-25T21:25:24.808Z,19.50
2022-07-25T21:27:52.825Z,19.40
2022-07-25T21:30:22.217Z,19.42
2022-07-25T21:32:50.144Z,19.77
2022-07-25T21:35:18.585Z,19.69
2022-07-25T21:37:46.579Z,19.84
2022-07-25T21:40:14.700Z,19.51
2022-07-25T21:42:43.382Z,19.74
2022-07-25T21:45:12.307Z,19.73
2022-07-25T21:47:41.657Z,19.78
2022-07-25T21:50:28.166Z,19.60
2022-07-25T21:52:56.145Z,19.65
2022-07-25T21:55:24.251Z,19.61
2022-07-25T21:57:52.532Z,19.24
2022-07-25T22:00:21.588Z,19.91
2022-07-25T22:02:51.148Z,19.69
2022-07-25T22:05:19.981Z,19.97
2022-07-25T22:07:48.772Z,20.15
2022-07-25T22:10:17.954Z,19.35
2022-07-25T22:12:46.315Z,19.54
2022-07-25T22:15:14.672Z,19.42
2022-07-25T22:17:48.470Z,19.20
2022-07-25T22:20:19.806Z,19.44
2022-07-25T22:22:48.362Z,19.67
2022-07-25T22:25:16.411Z,19.57
2022-07-25T22:27:44.822Z,19.88
2022-07-25T22:30:18.207Z,19.47
2022-07-25T22:32:46.727Z,19.43
2022-07-25T22:35:15.146Z,19.67
2022-07-25T22:37:44.593Z,19.45
2022-07-25T22:40:13.558Z,19.20
2022-07-25T22:42:41.539Z,19.20
2022-07-25T22:45:10.318Z,19.19
2022-07-25T22:47:38.322Z,19.15
2022-07-25T22:50:07.504Z,19.14
2022-07-25T22:52:36.037Z,19.21
2022-07-25T22:55:06.011Z,19.40
2022-07-25T22:57:37.151Z,19.31
2022-07-25T23:00:08.220Z,19.29
2022-07-25T23:02:36.303Z,19.23
2022-07-25T23:05:04.829Z,19.11
2022-07-25T23:07:32.889Z,19.22
2022-07-25T23:10:00.834Z,19.52
2022-07-25T23:12:30.181Z,19.35
2022-07-25T23:14:58.113Z,19.27
2022-07-25T23:17:26.166Z,18.91
2022-07-25T23:19:55.822Z,19.43
2022-07-25T23:22:25.266Z,19.05
2022-07-25T23:24:53.434Z,18.99
2022-07-25T23:27:21.484Z,19.30
2022-07-25T23:29:50.822Z,19.67
2022-07-25T23:32:18.951Z,19.59
2022-07-25T23:34:46.951Z,19.53
2022-07-25T23:37:15.099Z,19.27
2022-07-25T23:39:43.033Z,19.38
2022-07-25T23:42:11.055Z,19.65
2022-07-25T23:44:39.375Z,19.36
2022-07-25T23:47:10.134Z,19.20
2022-07-25T23:49:38.749Z,18.96
2022-07-25T23:52:07.145Z,18.76
2022-07-25T23:54:35.828Z,18.85
2022-07-25T23:57:03.964Z,18.73
2022-07-25T23:59:31.954Z,18.81
